Terminal Aerodrome Forecast
Issued by NWS Mt. Holly, NJ

Home | Current Version | Previous Version | Text Only | Print | Product List | Glossary On
Versions: 1 2 3 4 5 6 7 8 9 10 11 12 13 14 15
000
FTUS41 KPHI 251128
TAFABE
TAF
KABE 251128Z 2512/2612 34003KT P6SM VCSH BKN120
     FM251500 34004KT P6SM OVC050
      TEMPO 2519/2522 5SM -SHRA BR OVC025
     FM252200 04004KT 5SM HZ OVC015
     FM260000 06004KT 4SM BR OVC007
     FM260600 07005KT P6SM OVC007=

USA.gov is the U.S. government's official web portal to all federal, state and local government web resources and services.